createdAt,value
2018-04-29T00:01:00.031Z,79.52
2018-04-29T00:06:00.983Z,79.62
2018-04-29T00:11:01.958Z,81.69
2018-04-29T00:16:02.941Z,81.84
2018-04-29T00:21:03.956Z,81.11
2018-04-29T00:26:04.958Z,79.97
2018-04-29T00:31:05.939Z,78.53
2018-04-29T00:36:06.909Z,79.61
2018-04-29T00:41:07.888Z,80.54
2018-04-29T00:46:08.904Z,79.19
2018-04-29T00:51:09.876Z,80.02
2018-04-29T00:56:10.847Z,82.09
2018-04-29T01:01:11.808Z,80.17
2018-04-29T01:06:12.791Z,79.11
2018-04-29T01:11:13.763Z,81.54
2018-04-29T01:16:14.736Z,81.06
2018-04-29T01:21:15.729Z,79.58
2018-04-29T01:26:16.733Z,79.63
2018-04-29T01:31:17.693Z,80.46
2018-04-29T01:36:18.671Z,78.04
2018-04-29T01:41:19.636Z,78.15
2018-04-29T01:46:20.586Z,80.85
2018-04-29T01:51:21.528Z,80.70
2018-04-29T01:56:22.521Z,78.85
2018-04-29T02:01:23.476Z,79.40
2018-04-29T02:06:24.441Z,80.26
2018-04-29T02:11:25.388Z,79.40
2018-04-29T02:16:26.350Z,78.05
2018-04-29T02:21:27.334Z,79.71
2018-04-29T02:26:28.299Z,79.67
2018-04-29T02:31:29.306Z,77.87
2018-04-29T02:36:30.230Z,78.90
2018-04-29T02:41:31.212Z,78.30
2018-04-29T02:46:32.186Z,77.20
2018-04-29T02:51:33.160Z,76.86
2018-04-29T02:56:34.113Z,76.82
2018-04-29T03:01:35.063Z,80.79
2018-04-29T03:06:36.004Z,77.47
2018-04-29T03:11:36.964Z,78.94
2018-04-29T03:16:37.928Z,76.93
2018-04-29T03:21:38.912Z,76.76
2018-04-29T03:26:39.864Z,76.65
2018-04-29T03:31:40.812Z,76.66
2018-04-29T03:36:41.772Z,77.42
2018-04-29T03:41:42.717Z,77.52
2018-04-29T03:46:43.674Z,77.91
2018-04-29T03:51:44.605Z,78.68
2018-04-29T03:56:45.556Z,76.81
2018-04-29T04:01:58.960Z,77.07
2018-04-29T04:06:59.964Z,77.12
2018-04-29T04:12:00.920Z,77.45
2018-04-29T04:17:01.898Z,80.81
2018-04-29T04:22:02.866Z,81.42
2018-04-29T04:27:03.851Z,79.75
2018-04-29T04:32:04.807Z,80.16
2018-04-29T04:37:05.780Z,81.92
2018-04-29T04:42:06.753Z,83.06
2018-04-29T04:47:07.712Z,81.06
2018-04-29T04:52:08.660Z,83.26
2018-04-29T04:57:09.614Z,81.74
2018-04-29T05:02:10.594Z,81.20
2018-04-29T05:07:11.540Z,82.53
2018-04-29T05:12:12.507Z,83.86
2018-04-29T05:17:13.482Z,84.50
2018-04-29T05:22:14.638Z,82.31
2018-04-29T05:27:15.606Z,85.20
2018-04-29T05:32:16.600Z,81.67
2018-04-29T05:37:17.540Z,81.91
2018-04-29T05:42:18.523Z,80.79
2018-04-29T05:47:19.986Z,80.31
2018-04-29T05:52:20.960Z,80.52
2018-04-29T05:57:22.250Z,82.91
2018-04-29T06:02:23.238Z,82.70
2018-04-29T06:07:24.196Z,80.34
2018-04-29T06:12:25.187Z,79.21
2018-04-29T06:17:26.130Z,77.43
2018-04-29T06:22:27.127Z,77.35
2018-04-29T06:27:28.099Z,77.38
2018-04-29T06:32:29.111Z,77.65
2018-04-29T06:37:30.071Z,75.75
2018-04-29T06:42:31.060Z,72.39
2018-04-29T06:47:32.004Z,72.14
2018-04-29T06:52:32.963Z,73.55
2018-04-29T06:57:33.930Z,74.05
2018-04-29T07:02:34.882Z,74.86
2018-04-29T07:07:35.850Z,73.64
2018-04-29T07:12:36.813Z,77.27
2018-04-29T07:17:37.786Z,77.88
2018-04-29T07:22:38.812Z,76.05
2018-04-29T07:27:39.805Z,73.54
2018-04-29T07:32:40.825Z,71.82
2018-04-29T07:37:41.856Z,70.45
2018-04-29T07:42:42.825Z,71.73
2018-04-29T07:47:43.828Z,71.18
2018-04-29T07:52:44.855Z,71.67
2018-04-29T07:57:45.801Z,69.62
2018-04-29T08:02:46.777Z,70.76
2018-04-29T08:07:47.767Z,69.53
2018-04-29T08:12:48.938Z,68.40
2018-04-29T08:17:49.905Z,70.06
2018-04-29T08:22:51.559Z,70.34
2018-04-29T08:27:52.536Z,68.28
2018-04-29T08:32:53.510Z,67.89
2018-04-29T08:37:54.552Z,68.05
2018-04-29T08:42:55.568Z,68.05
2018-04-29T08:47:56.563Z,68.31
2018-04-29T08:52:57.547Z,68.93
2018-04-29T08:57:59.383Z,67.70
2018-04-29T09:03:00.340Z,67.62
2018-04-29T09:08:01.363Z,68.21
2018-04-29T09:13:02.359Z,67.82
2018-04-29T09:18:03.360Z,68.00
2018-04-29T09:23:04.416Z,67.73
2018-04-29T09:28:05.411Z,68.19
2018-04-29T09:33:06.391Z,65.79
2018-04-29T09:38:07.392Z,67.57
2018-04-29T09:43:08.392Z,68.51
2018-04-29T09:48:09.369Z,68.45
2018-04-29T09:53:10.361Z,67.65
2018-04-29T09:58:11.306Z,67.20
2018-04-29T10:03:12.274Z,67.77
2018-04-29T10:08:13.280Z,66.89
2018-04-29T10:13:14.253Z,67.19
2018-04-29T10:18:15.261Z,66.68
2018-04-29T10:23:16.279Z,66.58
2018-04-29T10:28:17.250Z,65.23
2018-04-29T10:33:18.252Z,63.44
2018-04-29T10:38:19.222Z,64.53
2018-04-29T10:43:20.199Z,63.84
2018-04-29T10:48:21.215Z,63.37
2018-04-29T10:53:22.174Z,63.68
2018-04-29T10:58:23.148Z,61.19
2018-04-29T11:03:24.145Z,59.39
2018-04-29T11:08:25.152Z,60.17
2018-04-29T11:13:26.141Z,59.63
2018-04-29T11:18:27.142Z,59.99
2018-04-29T11:23:28.169Z,58.48
2018-04-29T11:28:29.170Z,58.65
2018-04-29T11:33:30.180Z,59.12
2018-04-29T11:38:38.103Z,59.13
2018-04-29T11:43:39.071Z,57.72
2018-04-29T11:48:40.058Z,55.75
2018-04-29T11:53:41.040Z,57.21
2018-04-29T11:58:42.020Z,57.93
2018-04-29T12:03:43.009Z,58.76
2018-04-29T12:08:43.964Z,59.91
2018-04-29T12:13:44.960Z,60.31
2018-04-29T12:18:45.939Z,59.49
2018-04-29T12:23:46.962Z,59.75
2018-04-29T12:28:47.924Z,60.78
2018-04-29T12:33:48.885Z,62.48
2018-04-29T12:38:49.963Z,62.87
2018-04-29T12:43:50.939Z,63.91
2018-04-29T12:48:51.943Z,65.48
2018-04-29T12:53:52.937Z,66.25
2018-04-29T12:58:53.912Z,66.56
2018-04-29T13:03:54.906Z,67.19
2018-04-29T13:08:55.881Z,67.70
2018-04-29T13:13:56.912Z,69.30
2018-04-29T13:18:57.922Z,69.67
2018-04-29T13:23:58.988Z,69.69
2018-04-29T13:28:59.959Z,70.00
2018-04-29T13:34:00.938Z,71.23
2018-04-29T13:39:01.920Z,70.49
2018-04-29T13:44:02.899Z,70.95
2018-04-29T13:49:03.866Z,70.23
2018-04-29T13:54:04.865Z,70.27
2018-04-29T13:59:05.877Z,69.59
2018-04-29T14:04:06.870Z,70.34
2018-04-29T14:09:07.857Z,69.93
2018-04-29T14:14:08.855Z,71.27
2018-04-29T14:19:09.877Z,73.11
2018-04-29T14:24:10.917Z,72.23
2018-04-29T14:29:11.937Z,72.09
2018-04-29T14:34:12.945Z,73.92
2018-04-29T14:39:13.918Z,72.87
2018-04-29T14:44:14.918Z,72.54
2018-04-29T14:49:15.885Z,71.63
2018-04-29T14:54:16.880Z,73.14
2018-04-29T14:59:17.871Z,72.48
2018-04-29T15:04:18.884Z,73.27
2018-04-29T15:09:19.849Z,73.25
2018-04-29T15:14:20.851Z,73.18
2018-04-29T15:19:21.848Z,73.59
2018-04-29T15:24:22.941Z,74.16
2018-04-29T15:29:23.932Z,73.98
2018-04-29T15:34:24.956Z,74.26
2018-04-29T15:39:25.977Z,73.86
2018-04-29T15:44:26.981Z,73.75
2018-04-29T15:49:27.977Z,74.63
2018-04-29T15:54:28.950Z,74.21
2018-04-29T15:59:29.928Z,73.93
2018-04-29T16:04:30.917Z,73.84
2018-04-29T16:09:31.911Z,74.55
2018-04-29T16:14:32.913Z,73.76
2018-04-29T16:19:33.939Z,73.56
2018-04-29T16:24:35.023Z,74.71
2018-04-29T16:29:36.013Z,74.86
2018-04-29T16:34:37.127Z,75.18
2018-04-29T16:39:38.143Z,75.64
2018-04-29T16:44:39.167Z,74.44
2018-04-29T16:49:40.233Z,74.69
2018-04-29T16:54:41.314Z,74.80
2018-04-29T16:59:42.362Z,74.86
2018-04-29T17:04:43.401Z,74.07
2018-04-29T17:09:44.379Z,75.16
2018-04-29T17:14:45.366Z,74.05
2018-04-29T17:19:46.380Z,73.88
2018-04-29T17:24:47.463Z,73.08
2018-04-29T17:29:48.489Z,72.51
2018-04-29T17:34:49.538Z,73.23
2018-04-29T17:39:50.585Z,72.74
2018-04-29T17:44:51.628Z,72.02
2018-04-29T17:49:52.613Z,72.00
2018-04-29T17:54:53.673Z,73.18
2018-04-29T17:59:54.673Z,73.30
2018-04-29T18:04:55.687Z,73.73
2018-04-29T18:09:56.702Z,74.04
2018-04-29T18:14:57.721Z,73.01
2018-04-29T18:19:58.759Z,67.28
2018-04-29T18:24:59.796Z,66.96
2018-04-29T18:30:00.902Z,64.80
2018-04-29T18:35:01.965Z,62.71
2018-04-29T18:40:03.073Z,65.20
2018-04-29T18:45:04.092Z,61.87
2018-04-29T18:50:05.113Z,61.41
2018-04-29T18:55:06.140Z,62.10
2018-04-29T19:00:07.177Z,63.38
2018-04-29T19:05:08.209Z,62.24
2018-04-29T19:10:09.266Z,63.02
2018-04-29T19:15:10.344Z,60.68
2018-04-29T19:20:11.408Z,61.14
2018-04-29T19:25:12.469Z,61.42
2018-04-29T19:30:13.557Z,61.74
2018-04-29T19:35:21.719Z,66.44
2018-04-29T19:40:22.758Z,69.83
2018-04-29T19:45:23.921Z,71.07
2018-04-29T19:50:24.936Z,71.26
2018-04-29T19:55:25.972Z,71.80
2018-04-29T20:00:27.075Z,74.03
2018-04-29T20:05:28.101Z,74.80
2018-04-29T20:10:29.119Z,75.57
2018-04-29T20:15:30.151Z,75.87
2018-04-29T20:20:31.145Z,76.55
2018-04-29T20:25:32.198Z,77.19
2018-04-29T20:30:33.215Z,76.88
2018-04-29T20:35:34.290Z,76.22
2018-04-29T20:40:35.333Z,76.42
2018-04-29T20:45:36.347Z,76.50
2018-04-29T20:50:37.373Z,76.58
2018-04-29T20:55:38.355Z,76.19
2018-04-29T21:00:39.363Z,75.76
2018-04-29T21:05:40.389Z,74.92
2018-04-29T21:10:41.414Z,73.82
2018-04-29T21:15:42.402Z,73.37
2018-04-29T21:20:43.367Z,73.04
2018-04-29T21:25:44.457Z,73.37
2018-04-29T21:30:45.466Z,72.78
2018-04-29T21:35:46.491Z,71.12
2018-04-29T21:40:47.459Z,70.48
2018-04-29T21:45:48.473Z,69.83
2018-04-29T21:50:49.487Z,69.98
2018-04-29T21:55:50.474Z,70.41
2018-04-29T22:00:51.491Z,70.04
2018-04-29T22:05:52.501Z,70.18
2018-04-29T22:10:53.512Z,70.61
2018-04-29T22:15:54.500Z,70.46
2018-04-29T22:20:55.476Z,70.83
2018-04-29T22:25:57.021Z,70.76
2018-04-29T22:30:58.245Z,71.33
2018-04-29T22:35:59.502Z,71.60
2018-04-29T22:41:00.529Z,70.86
2018-04-29T22:46:01.512Z,70.58
2018-04-29T22:51:02.519Z,71.36
2018-04-29T22:56:03.510Z,70.97
2018-04-29T23:01:04.463Z,71.33
2018-04-29T23:06:05.479Z,71.68
2018-04-29T23:11:06.435Z,71.64
2018-04-29T23:16:07.423Z,71.32
2018-04-29T23:21:08.365Z,71.63
2018-04-29T23:26:09.380Z,72.34
2018-04-29T23:31:10.353Z,72.64
2018-04-29T23:36:11.345Z,72.81
2018-04-29T23:41:12.332Z,73.15
2018-04-29T23:46:13.291Z,72.04
2018-04-29T23:51:14.259Z,71.88
2018-04-29T23:56:15.240Z,72.91
